Tail Wind — WDJ3885 — position and weather

sailwx.info

Track history (hours):
 
Tides and Currents Weather Stations Pressure Air Temp Water Temp Dewpoint Dewpoint Depression Visibility Wind Speed Wind Dir Waves Ship Positions

Tail Wind

Owner: Caliendo Jr, Thomas J, Hillsborough, NJ. More information available from US FCC via Universal Licensing System and Coast Guard Vessel Documentation Center.

Last reported at 2017-Nov-19 18:11 UTC. Time now 2017-Nov-24 09:22 UTC.
Position N 34°43' W 076°42'.

Length 14 m.

Type: Sailing vessel. MMSI: 367772340.

Date/timePositionNaut miles runAvg speedWind from/ knotsBaromVisibWave heightAir tempDewpointWater temp
2017-Nov-19 18:11N 34°43' W 076°42'0 0.1
2017-Nov-19 18:00N 34°43' W 076°42'3 5.5
2017-Nov-19 17:31N 34°46' W 076°40'4 7.4
2017-Nov-19 17:00N 34°49' W 076°41'3 6.8
2017-Nov-19 16:31N 34°53' W 076°41'  
2017-Nov-15 14:48N 36°43' W 076°14'3 0.2
2017-Nov-14 20:56N 36°44' W 076°18'1 2.7
2017-Nov-14 20:30N 36°46' W 076°18'2 4.2
2017-Nov-14 20:00N 36°48' W 076°18'3 6.8
2017-Nov-14 19:29N 36°51' W 076°18'12 3.3
2017-Nov-14 15:51N 36°58' W 076°06'2 4.4
2017-Nov-14 15:30N 36°57' W 076°04'3 4.7
2017-Nov-14 14:58N 36°57' W 076°01'180 4.0
2017-Nov-12 18:22N 39°35' W 074°12'3 7.5
2017-Nov-12 18:00N 39°37' W 074°10'4 7.5
2017-Nov-12 17:30N 39°41' W 074°08'4 7.5
2017-Nov-12 16:56N 39°44' W 074°05'4 7.3
2017-Nov-12 16:26N 39°48' W 074°04'40 7.4
2017-Nov-12 11:05N 40°27' W 073°58'2 8.0
2017-Nov-12 10:50N 40°29' W 073°59'2 6.2
2017-Nov-12 10:30N 40°28' W 074°01'  
Track history (hours):
 
Tides and Currents Weather Stations Pressure Air Temp Water Temp Dewpoint Dewpoint Depression Visibility Wind Speed Wind Dir Waves Ship Positions

Tail Wind

Owner: Caliendo Jr, Thomas J, Hillsborough, NJ. More information available from US FCC via Universal Licensing System and Coast Guard Vessel Documentation Center.

Last reported at 2017-Nov-19 18:11 UTC. Time now 2017-Nov-24 09:22 UTC.
Position N 34°43' W 076°42'.

Length 14 m.

Type: Sailing vessel. MMSI: 367772340.

Date/timePositionNaut miles runAvg speedWind from/ knotsBaromVisibWave heightAir tempDewpointWater temp
2017-Nov-19 18:11N 34°43' W 076°42'0 0.1
2017-Nov-19 18:00N 34°43' W 076°42'3 5.5
2017-Nov-19 17:31N 34°46' W 076°40'4 7.4
2017-Nov-19 17:00N 34°49' W 076°41'3 6.8
2017-Nov-19 16:31N 34°53' W 076°41'  
2017-Nov-15 14:48N 36°43' W 076°14'3 0.2
2017-Nov-14 20:56N 36°44' W 076°18'1 2.7
2017-Nov-14 20:30N 36°46' W 076°18'2 4.2
2017-Nov-14 20:00N 36°48' W 076°18'3 6.8
2017-Nov-14 19:29N 36°51' W 076°18'12 3.3
2017-Nov-14 15:51N 36°58' W 076°06'2 4.4
2017-Nov-14 15:30N 36°57' W 076°04'3 4.7
2017-Nov-14 14:58N 36°57' W 076°01'180 4.0
2017-Nov-12 18:22N 39°35' W 074°12'3 7.5
2017-Nov-12 18:00N 39°37' W 074°10'4 7.5
2017-Nov-12 17:30N 39°41' W 074°08'4 7.5
2017-Nov-12 16:56N 39°44' W 074°05'4 7.3
2017-Nov-12 16:26N 39°48' W 074°04'40 7.4
2017-Nov-12 11:05N 40°27' W 073°58'2 8.0
2017-Nov-12 10:50N 40°29' W 073°59'2 6.2
2017-Nov-12 10:30N 40°28' W 074°01'  

Dump ship's entire track history